sensor_id;sensor_type;location;lat;lon;timestamp;temperature;humidity
3134;DHT22;1577;49.912;10.924;2023-07-13T00:00:33;23.60;83.50
3134;DHT22;1577;49.912;10.924;2023-07-13T00:02:58;23.50;84.10
3134;DHT22;1577;49.912;10.924;2023-07-13T00:05:24;23.50;84.40
3134;DHT22;1577;49.912;10.924;2023-07-13T00:07:50;23.60;84.10
3134;DHT22;1577;49.912;10.924;2023-07-13T00:10:17;23.50;84.10
3134;DHT22;1577;49.912;10.924;2023-07-13T00:12:43;23.50;84.20
3134;DHT22;1577;49.912;10.924;2023-07-13T00:15:24;23.50;84.10
3134;DHT22;1577;49.912;10.924;2023-07-13T00:17:53;23.40;84.40
3134;DHT22;1577;49.912;10.924;2023-07-13T00:20:21;23.40;84.00
3134;DHT22;1577;49.912;10.924;2023-07-13T00:22:48;23.30;84.50
3134;DHT22;1577;49.912;10.924;2023-07-13T00:25:14;23.20;84.60
3134;DHT22;1577;49.912;10.924;2023-07-13T00:27:42;23.20;84.80
3134;DHT22;1577;49.912;10.924;2023-07-13T00:30:09;23.20;85.00
3134;DHT22;1577;49.912;10.924;2023-07-13T00:32:35;23.20;85.10
3134;DHT22;1577;49.912;10.924;2023-07-13T00:35:02;23.20;85.30
3134;DHT22;1577;49.912;10.924;2023-07-13T00:37:28;23.10;85.20
3134;DHT22;1577;49.912;10.924;2023-07-13T00:39:54;23.00;85.40
3134;DHT22;1577;49.912;10.924;2023-07-13T00:42:20;22.80;86.10
3134;DHT22;1577;49.912;10.924;2023-07-13T00:45:06;22.80;86.00
3134;DHT22;1577;49.912;10.924;2023-07-13T00:47:32;22.80;86.30
3134;DHT22;1577;49.912;10.924;2023-07-13T00:49:58;22.60;86.40
3134;DHT22;1577;49.912;10.924;2023-07-13T00:52:24;22.60;86.80
3134;DHT22;1577;49.912;10.924;2023-07-13T00:54:50;22.60;86.80
3134;DHT22;1577;49.912;10.924;2023-07-13T00:57:19;22.60;87.10
3134;DHT22;1577;49.912;10.924;2023-07-13T00:59:52;22.50;88.00
3134;DHT22;1577;49.912;10.924;2023-07-13T01:02:19;22.40;87.30
3134;DHT22;1577;49.912;10.924;2023-07-13T01:04:45;22.40;87.80
3134;DHT22;1577;49.912;10.924;2023-07-13T01:07:12;22.30;88.30
3134;DHT22;1577;49.912;10.924;2023-07-13T01:09:38;22.30;88.50
3134;DHT22;1577;49.912;10.924;2023-07-13T01:12:03;22.30;88.40
3134;DHT22;1577;49.912;10.924;2023-07-13T01:14:29;22.20;88.40
3134;DHT22;1577;49.912;10.924;2023-07-13T01:16:55;22.10;88.60
3134;DHT22;1577;49.912;10.924;2023-07-13T01:19:37;22.10;88.90
3134;DHT22;1577;49.912;10.924;2023-07-13T01:22:23;22.10;89.20
3134;DHT22;1577;49.912;10.924;2023-07-13T01:24:51;22.10;89.40
3134;DHT22;1577;49.912;10.924;2023-07-13T01:27:23;21.90;89.50
3134;DHT22;1577;49.912;10.924;2023-07-13T01:29:50;21.80;90.10
3134;DHT22;1577;49.912;10.924;2023-07-13T01:32:20;21.70;90.20
3134;DHT22;1577;49.912;10.924;2023-07-13T01:34:47;21.70;90.50
3134;DHT22;1577;49.912;10.924;2023-07-13T01:37:13;21.70;90.60
3134;DHT22;1577;49.912;10.924;2023-07-13T01:39:38;21.60;90.70
3134;DHT22;1577;49.912;10.924;2023-07-13T01:42:04;21.50;90.80
3134;DHT22;1577;49.912;10.924;2023-07-13T01:44:30;21.50;91.00
3134;DHT22;1577;49.912;10.924;2023-07-13T01:46:56;21.40;91.00
3134;DHT22;1577;49.912;10.924;2023-07-13T01:49:22;21.30;91.20
3134;DHT22;1577;49.912;10.924;2023-07-13T01:51:47;21.30;91.20
3134;DHT22;1577;49.912;10.924;2023-07-13T01:54:13;21.10;91.30
3134;DHT22;1577;49.912;10.924;2023-07-13T01:56:38;21.20;91.40
3134;DHT22;1577;49.912;10.924;2023-07-13T01:59:05;21.10;91.30
3134;DHT22;1577;49.912;10.924;2023-07-13T02:01:30;21.00;91.60
3134;DHT22;1577;49.912;10.924;2023-07-13T02:03:56;20.80;92.00
3134;DHT22;1577;49.912;10.924;2023-07-13T02:06:21;20.90;91.80
3134;DHT22;1577;49.912;10.924;2023-07-13T02:08:47;20.90;91.80
3134;DHT22;1577;49.912;10.924;2023-07-13T02:11:13;20.90;91.90
3134;DHT22;1577;49.912;10.924;2023-07-13T02:13:38;20.70;91.90
3134;DHT22;1577;49.912;10.924;2023-07-13T02:16:04;20.70;91.80
3134;DHT22;1577;49.912;10.924;2023-07-13T02:18:30;20.60;92.00
3134;DHT22;1577;49.912;10.924;2023-07-13T02:20:55;20.50;91.80
3134;DHT22;1577;49.912;10.924;2023-07-13T02:23:21;20.50;91.80
3134;DHT22;1577;49.912;10.924;2023-07-13T02:25:46;20.50;92.00
3134;DHT22;1577;49.912;10.924;2023-07-13T02:28:12;20.50;92.10
3134;DHT22;1577;49.912;10.924;2023-07-13T02:30:38;20.40;92.00
3134;DHT22;1577;49.912;10.924;2023-07-13T02:33:04;20.20;92.00
3134;DHT22;1577;49.912;10.924;2023-07-13T02:35:30;20.20;92.10
3134;DHT22;1577;49.912;10.924;2023-07-13T02:37:56;20.20;92.20
3134;DHT22;1577;49.912;10.924;2023-07-13T02:40:22;20.10;92.40
3134;DHT22;1577;49.912;10.924;2023-07-13T02:42:48;20.20;92.30
3134;DHT22;1577;49.912;10.924;2023-07-13T02:45:13;20.20;92.40
3134;DHT22;1577;49.912;10.924;2023-07-13T02:47:41;20.30;92.60
3134;DHT22;1577;49.912;10.924;2023-07-13T02:50:07;20.20;92.50
3134;DHT22;1577;49.912;10.924;2023-07-13T02:52:33;20.00;92.60
3134;DHT22;1577;49.912;10.924;2023-07-13T02:54:59;20.10;92.40
3134;DHT22;1577;49.912;10.924;2023-07-13T02:57:24;20.10;92.10
3134;DHT22;1577;49.912;10.924;2023-07-13T02:59:50;20.10;91.80
3134;DHT22;1577;49.912;10.924;2023-07-13T03:02:16;20.00;91.70
3134;DHT22;1577;49.912;10.924;2023-07-13T03:04:41;20.10;91.70
3134;DHT22;1577;49.912;10.924;2023-07-13T03:07:07;20.00;91.80
3134;DHT22;1577;49.912;10.924;2023-07-13T03:09:34;19.90;91.80
3134;DHT22;1577;49.912;10.924;2023-07-13T03:11:59;19.90;91.80
3134;DHT22;1577;49.912;10.924;2023-07-13T03:14:25;19.90;91.70
3134;DHT22;1577;49.912;10.924;2023-07-13T03:16:51;19.70;92.00
3134;DHT22;1577;49.912;10.924;2023-07-13T03:19:17;19.50;92.30
3134;DHT22;1577;49.912;10.924;2023-07-13T03:21:43;19.50;92.60
3134;DHT22;1577;49.912;10.924;2023-07-13T03:24:09;19.50;92.60
3134;DHT22;1577;49.912;10.924;2023-07-13T03:26:34;19.40;92.70
3134;DHT22;1577;49.912;10.924;2023-07-13T03:29:00;19.30;92.90
3134;DHT22;1577;49.912;10.924;2023-07-13T03:31:28;19.30;92.80
3134;DHT22;1577;49.912;10.924;2023-07-13T03:33:55;19.20;92.90
3134;DHT22;1577;49.912;10.924;2023-07-13T03:36:24;19.10;93.00
3134;DHT22;1577;49.912;10.924;2023-07-13T03:38:53;19.10;93.20
3134;DHT22;1577;49.912;10.924;2023-07-13T03:41:19;19.10;93.00
3134;DHT22;1577;49.912;10.924;2023-07-13T03:43:45;19.20;93.20
3134;DHT22;1577;49.912;10.924;2023-07-13T03:46:13;19.00;93.40
3134;DHT22;1577;49.912;10.924;2023-07-13T03:48:39;18.90;93.70
3134;DHT22;1577;49.912;10.924;2023-07-13T03:51:06;18.80;93.90
3134;DHT22;1577;49.912;10.924;2023-07-13T03:53:31;18.80;94.00
3134;DHT22;1577;49.912;10.924;2023-07-13T03:55:57;18.80;93.50
3134;DHT22;1577;49.912;10.924;2023-07-13T03:58:27;19.00;92.50
3134;DHT22;1577;49.912;10.924;2023-07-13T04:00:54;19.10;92.20
3134;DHT22;1577;49.912;10.924;2023-07-13T04:03:20;19.00;92.20
3134;DHT22;1577;49.912;10.924;2023-07-13T04:05:46;19.00;92.40
3134;DHT22;1577;49.912;10.924;2023-07-13T04:08:12;19.20;92.40
3134;DHT22;1577;49.912;10.924;2023-07-13T04:10:37;19.20;92.40
3134;DHT22;1577;49.912;10.924;2023-07-13T04:13:04;19.20;92.40
3134;DHT22;1577;49.912;10.924;2023-07-13T04:15:31;19.10;92.40
3134;DHT22;1577;49.912;10.924;2023-07-13T04:17:57;19.30;92.30
3134;DHT22;1577;49.912;10.924;2023-07-13T04:20:23;19.20;92.70
3134;DHT22;1577;49.912;10.924;2023-07-13T04:22:49;19.20;92.60
3134;DHT22;1577;49.912;10.924;2023-07-13T04:25:15;19.30;92.70
3134;DHT22;1577;49.912;10.924;2023-07-13T04:27:41;19.40;92.80
3134;DHT22;1577;49.912;10.924;2023-07-13T04:30:07;19.40;92.80
3134;DHT22;1577;49.912;10.924;2023-07-13T04:32:32;19.50;92.70
3134;DHT22;1577;49.912;10.924;2023-07-13T04:34:58;19.40;93.30
3134;DHT22;1577;49.912;10.924;2023-07-13T04:37:25;19.60;93.60
3134;DHT22;1577;49.912;10.924;2023-07-13T04:39:51;19.80;93.50
3134;DHT22;1577;49.912;10.924;2023-07-13T04:42:17;19.90;93.50
3134;DHT22;1577;49.912;10.924;2023-07-13T04:44:50;19.90;93.50
3134;DHT22;1577;49.912;10.924;2023-07-13T04:47:17;20.00;93.60
3134;DHT22;1577;49.912;10.924;2023-07-13T04:49:42;20.00;93.60
3134;DHT22;1577;49.912;10.924;2023-07-13T04:52:08;19.90;93.90
3134;DHT22;1577;49.912;10.924;2023-07-13T04:54:34;19.80;94.10
3134;DHT22;1577;49.912;10.924;2023-07-13T04:57:00;19.90;94.10
3134;DHT22;1577;49.912;10.924;2023-07-13T04:59:26;20.10;93.90
3134;DHT22;1577;49.912;10.924;2023-07-13T05:01:52;20.20;93.50
3134;DHT22;1577;49.912;10.924;2023-07-13T05:04:18;20.40;93.30
3134;DHT22;1577;49.912;10.924;2023-07-13T05:06:43;20.50;92.80
3134;DHT22;1577;49.912;10.924;2023-07-13T05:09:09;20.60;92.70
3134;DHT22;1577;49.912;10.924;2023-07-13T05:11:35;20.80;92.20
3134;DHT22;1577;49.912;10.924;2023-07-13T05:14:00;21.00;91.60
3134;DHT22;1577;49.912;10.924;2023-07-13T05:16:27;21.10;91.60
3134;DHT22;1577;49.912;10.924;2023-07-13T05:18:53;21.20;91.40
3134;DHT22;1577;49.912;10.924;2023-07-13T05:21:19;21.40;91.40
3134;DHT22;1577;49.912;10.924;2023-07-13T05:23:44;21.50;91.20
3134;DHT22;1577;49.912;10.924;2023-07-13T05:26:11;21.70;91.00
3134;DHT22;1577;49.912;10.924;2023-07-13T05:28:37;21.70;90.80
3134;DHT22;1577;49.912;10.924;2023-07-13T05:31:04;21.90;91.30
3134;DHT22;1577;49.912;10.924;2023-07-13T05:33:30;22.10;90.90
3134;DHT22;1577;49.912;10.924;2023-07-13T05:35:56;22.30;90.20
3134;DHT22;1577;49.912;10.924;2023-07-13T05:38:22;22.40;88.80
3134;DHT22;1577;49.912;10.924;2023-07-13T05:40:48;22.40;89.10
3134;DHT22;1577;49.912;10.924;2023-07-13T05:43:14;22.40;89.30
3134;DHT22;1577;49.912;10.924;2023-07-13T05:45:40;22.50;89.10
3134;DHT22;1577;49.912;10.924;2023-07-13T05:48:06;22.60;88.30
3134;DHT22;1577;49.912;10.924;2023-07-13T05:50:31;22.60;88.40
3134;DHT22;1577;49.912;10.924;2023-07-13T05:52:57;22.70;87.70
3134;DHT22;1577;49.912;10.924;2023-07-13T05:55:23;22.80;86.80
3134;DHT22;1577;49.912;10.924;2023-07-13T05:57:48;22.70;86.40
3134;DHT22;1577;49.912;10.924;2023-07-13T06:00:15;22.70;86.70
3134;DHT22;1577;49.912;10.924;2023-07-13T06:02:40;22.80;86.80
3134;DHT22;1577;49.912;10.924;2023-07-13T06:05:06;22.90;86.20
3134;DHT22;1577;49.912;10.924;2023-07-13T06:07:32;23.00;85.50
3134;DHT22;1577;49.912;10.924;2023-07-13T06:09:57;23.10;84.40
3134;DHT22;1577;49.912;10.924;2023-07-13T06:12:25;23.10;83.40
3134;DHT22;1577;49.912;10.924;2023-07-13T06:14:50;23.00;83.30
3134;DHT22;1577;49.912;10.924;2023-07-13T06:17:16;22.90;82.90
3134;DHT22;1577;49.912;10.924;2023-07-13T06:19:42;22.90;82.50
3134;DHT22;1577;49.912;10.924;2023-07-13T06:22:08;22.90;82.40
3134;DHT22;1577;49.912;10.924;2023-07-13T06:24:33;22.80;82.40
3134;DHT22;1577;49.912;10.924;2023-07-13T06:26:59;22.90;82.00
3134;DHT22;1577;49.912;10.924;2023-07-13T06:29:24;22.90;81.60
3134;DHT22;1577;49.912;10.924;2023-07-13T06:31:50;23.00;81.50
3134;DHT22;1577;49.912;10.924;2023-07-13T06:34:16;23.10;81.90
3134;DHT22;1577;49.912;10.924;2023-07-13T06:36:41;23.20;81.10
3134;DHT22;1577;49.912;10.924;2023-07-13T06:39:07;23.20;81.20
3134;DHT22;1577;49.912;10.924;2023-07-13T06:41:33;23.20;81.10
3134;DHT22;1577;49.912;10.924;2023-07-13T06:43:59;23.40;81.00
3134;DHT22;1577;49.912;10.924;2023-07-13T06:46:25;23.70;80.70
3134;DHT22;1577;49.912;10.924;2023-07-13T06:48:50;24.50;78.90
3134;DHT22;1577;49.912;10.924;2023-07-13T06:51:16;25.00;78.20
3134;DHT22;1577;49.912;10.924;2023-07-13T06:53:41;25.30;76.30
3134;DHT22;1577;49.912;10.924;2023-07-13T06:56:09;25.60;76.00
3134;DHT22;1577;49.912;10.924;2023-07-13T06:58:35;25.90;76.40
3134;DHT22;1577;49.912;10.924;2023-07-13T07:01:01;26.50;74.70
3134;DHT22;1577;49.912;10.924;2023-07-13T07:03:27;27.10;73.30
3134;DHT22;1577;49.912;10.924;2023-07-13T07:05:52;28.10;71.20
3134;DHT22;1577;49.912;10.924;2023-07-13T07:08:18;29.50;70.20
3134;DHT22;1577;49.912;10.924;2023-07-13T07:10:44;30.60;67.20
3134;DHT22;1577;49.912;10.924;2023-07-13T07:13:10;31.40;65.40
3134;DHT22;1577;49.912;10.924;2023-07-13T07:15:36;31.80;63.20
3134;DHT22;1577;49.912;10.924;2023-07-13T07:18:01;32.00;62.80
3134;DHT22;1577;49.912;10.924;2023-07-13T07:20:27;32.90;59.90
3134;DHT22;1577;49.912;10.924;2023-07-13T07:22:53;33.90;59.60
3134;DHT22;1577;49.912;10.924;2023-07-13T07:25:19;34.30;57.20
3134;DHT22;1577;49.912;10.924;2023-07-13T07:27:45;34.10;56.30
3134;DHT22;1577;49.912;10.924;2023-07-13T07:30:11;33.60;56.60
3134;DHT22;1577;49.912;10.924;2023-07-13T07:32:37;32.70;56.60
3134;DHT22;1577;49.912;10.924;2023-07-13T07:35:02;32.20;57.00
3134;DHT22;1577;49.912;10.924;2023-07-13T07:37:28;31.20;57.70
3134;DHT22;1577;49.912;10.924;2023-07-13T07:39:54;30.20;59.10
3134;DHT22;1577;49.912;10.924;2023-07-13T07:42:19;29.60;60.90
3134;DHT22;1577;49.912;10.924;2023-07-13T07:44:45;29.40;60.50
3134;DHT22;1577;49.912;10.924;2023-07-13T07:47:11;29.40;61.30
3134;DHT22;1577;49.912;10.924;2023-07-13T07:49:37;29.30;61.20
3134;DHT22;1577;49.912;10.924;2023-07-13T07:52:03;29.40;61.30
3134;DHT22;1577;49.912;10.924;2023-07-13T07:54:29;29.60;61.80
3134;DHT22;1577;49.912;10.924;2023-07-13T07:56:55;29.90;60.30
3134;DHT22;1577;49.912;10.924;2023-07-13T07:59:20;30.30;58.80
3134;DHT22;1577;49.912;10.924;2023-07-13T08:01:46;30.90;58.20
3134;DHT22;1577;49.912;10.924;2023-07-13T08:04:13;31.40;57.10
3134;DHT22;1577;49.912;10.924;2023-07-13T08:06:39;32.50;56.90
3134;DHT22;1577;49.912;10.924;2023-07-13T08:09:04;32.80;54.30
3134;DHT22;1577;49.912;10.924;2023-07-13T08:11:30;32.70;54.50
3134;DHT22;1577;49.912;10.924;2023-07-13T08:13:56;32.80;54.60
3134;DHT22;1577;49.912;10.924;2023-07-13T08:16:22;32.70;53.30
3134;DHT22;1577;49.912;10.924;2023-07-13T08:18:48;32.40;53.10
3134;DHT22;1577;49.912;10.924;2023-07-13T08:21:14;32.10;51.30
3134;DHT22;1577;49.912;10.924;2023-07-13T08:23:39;32.30;50.70
3134;DHT22;1577;49.912;10.924;2023-07-13T08:26:05;32.90;50.60
3134;DHT22;1577;49.912;10.924;2023-07-13T08:28:31;33.80;49.60
3134;DHT22;1577;49.912;10.924;2023-07-13T08:31:02;34.90;48.00
3134;DHT22;1577;49.912;10.924;2023-07-13T08:33:28;35.60;46.40
3134;DHT22;1577;49.912;10.924;2023-07-13T08:35:54;36.10;48.00
3134;DHT22;1577;49.912;10.924;2023-07-13T08:38:19;35.50;45.50
3134;DHT22;1577;49.912;10.924;2023-07-13T08:40:51;35.00;46.10
3134;DHT22;1577;49.912;10.924;2023-07-13T08:43:23;34.30;45.70
3134;DHT22;1577;49.912;10.924;2023-07-13T08:45:54;34.10;45.10
3134;DHT22;1577;49.912;10.924;2023-07-13T08:48:26;33.40;46.00
3134;DHT22;1577;49.912;10.924;2023-07-13T08:53:47;32.70;45.10
3134;DHT22;1577;49.912;10.924;2023-07-13T08:56:18;33.20;44.70
3134;DHT22;1577;49.912;10.924;2023-07-13T08:58:48;33.80;45.90
3134;DHT22;1577;49.912;10.924;2023-07-13T09:04:15;34.50;45.20
3134;DHT22;1577;49.912;10.924;2023-07-13T09:12:23;34.20;41.90
3134;DHT22;1577;49.912;10.924;2023-07-13T09:14:53;34.20;42.60
3134;DHT22;1577;49.912;10.924;2023-07-13T09:20:31;33.90;41.90
3134;DHT22;1577;49.912;10.924;2023-07-13T09:23:00;33.70;42.80
3134;DHT22;1577;49.912;10.924;2023-07-13T09:25:34;33.90;43.80
3134;DHT22;1577;49.912;10.924;2023-07-13T09:28:15;34.20;42.10
3134;DHT22;1577;49.912;10.924;2023-07-13T09:33:47;34.90;42.60
3134;DHT22;1577;49.912;10.924;2023-07-13T09:39:17;33.80;43.70
3134;DHT22;1577;49.912;10.924;2023-07-13T09:44:35;33.60;42.30
3134;DHT22;1577;49.912;10.924;2023-07-13T09:47:01;33.80;41.50
3134;DHT22;1577;49.912;10.924;2023-07-13T09:49:30;33.40;41.30
3134;DHT22;1577;49.912;10.924;2023-07-13T09:52:05;32.40;42.70
3134;DHT22;1577;49.912;10.924;2023-07-13T09:54:34;31.60;45.30
3134;DHT22;1577;49.912;10.924;2023-07-13T09:57:01;31.10;46.20
3134;DHT22;1577;49.912;10.924;2023-07-13T09:59:30;31.10;45.20
3134;DHT22;1577;49.912;10.924;2023-07-13T10:01:56;31.10;45.10
3134;DHT22;1577;49.912;10.924;2023-07-13T10:04:33;31.40;47.20
3134;DHT22;1577;49.912;10.924;2023-07-13T10:07:12;31.60;45.10
3134;DHT22;1577;49.912;10.924;2023-07-13T10:09:38;32.00;45.30
3134;DHT22;1577;49.912;10.924;2023-07-13T10:12:13;32.00;44.80
3134;DHT22;1577;49.912;10.924;2023-07-13T10:14:40;31.70;46.30
3134;DHT22;1577;49.912;10.924;2023-07-13T10:17:13;31.00;44.30
3134;DHT22;1577;49.912;10.924;2023-07-13T10:19:41;30.60;46.50
3134;DHT22;1577;49.912;10.924;2023-07-13T10:22:25;29.90;46.30
3134;DHT22;1577;49.912;10.924;2023-07-13T10:24:53;29.20;47.30
3134;DHT22;1577;49.912;10.924;2023-07-13T10:27:27;28.80;47.50
3134;DHT22;1577;49.912;10.924;2023-07-13T10:30:19;28.60;47.50
3134;DHT22;1577;49.912;10.924;2023-07-13T10:32:49;28.40;48.80
3134;DHT22;1577;49.912;10.924;2023-07-13T10:35:17;28.40;49.70
3134;DHT22;1577;49.912;10.924;2023-07-13T10:40:23;28.00;48.90
3134;DHT22;1577;49.912;10.924;2023-07-13T10:42:53;27.90;50.00
3134;DHT22;1577;49.912;10.924;2023-07-13T10:45:23;27.90;48.50
3134;DHT22;1577;49.912;10.924;2023-07-13T10:47:52;27.80;49.20
3134;DHT22;1577;49.912;10.924;2023-07-13T10:50:23;27.80;50.90
3134;DHT22;1577;49.912;10.924;2023-07-13T10:58:28;27.60;51.40
3134;DHT22;1577;49.912;10.924;2023-07-13T11:03:37;27.80;49.80
3134;DHT22;1577;49.912;10.924;2023-07-13T11:06:16;27.70;50.10
3134;DHT22;1577;49.912;10.924;2023-07-13T11:14:01;27.80;50.70
3134;DHT22;1577;49.912;10.924;2023-07-13T11:16:36;27.70;50.60
3134;DHT22;1577;49.912;10.924;2023-07-13T11:21:29;27.50;49.80
3134;DHT22;1577;49.912;10.924;2023-07-13T11:24:13;27.40;50.00
3134;DHT22;1577;49.912;10.924;2023-07-13T11:26:51;27.40;49.30
3134;DHT22;1577;49.912;10.924;2023-07-13T11:31:53;27.40;51.80
3134;DHT22;1577;49.912;10.924;2023-07-13T11:34:31;27.40;50.30
3134;DHT22;1577;49.912;10.924;2023-07-13T11:36:59;27.40;51.40
3134;DHT22;1577;49.912;10.924;2023-07-13T11:41:57;27.30;50.50
3134;DHT22;1577;49.912;10.924;2023-07-13T11:44:28;27.40;52.30
3134;DHT22;1577;49.912;10.924;2023-07-13T11:46:56;27.60;50.40
3134;DHT22;1577;49.912;10.924;2023-07-13T11:49:27;27.70;49.30
3134;DHT22;1577;49.912;10.924;2023-07-13T11:51:53;27.80;51.80
3134;DHT22;1577;49.912;10.924;2023-07-13T11:54:29;27.80;51.10
3134;DHT22;1577;49.912;10.924;2023-07-13T11:56:58;27.80;51.10
3134;DHT22;1577;49.912;10.924;2023-07-13T11:59:27;27.90;52.20
3134;DHT22;1577;49.912;10.924;2023-07-13T12:01:54;27.90;51.30
3134;DHT22;1577;49.912;10.924;2023-07-13T12:04:29;27.90;51.50
3134;DHT22;1577;49.912;10.924;2023-07-13T12:07:16;27.90;50.30
3134;DHT22;1577;49.912;10.924;2023-07-13T12:09:42;27.90;51.80
3134;DHT22;1577;49.912;10.924;2023-07-13T12:12:18;27.80;51.80
3134;DHT22;1577;49.912;10.924;2023-07-13T12:14:44;27.80;51.10
3134;DHT22;1577;49.912;10.924;2023-07-13T12:17:19;27.70;50.80
3134;DHT22;1577;49.912;10.924;2023-07-13T12:19:45;27.80;51.50
3134;DHT22;1577;49.912;10.924;2023-07-13T12:22:13;27.80;50.20
3134;DHT22;1577;49.912;10.924;2023-07-13T12:24:40;27.80;50.50
3134;DHT22;1577;49.912;10.924;2023-07-13T12:27:15;27.70;51.70
3134;DHT22;1577;49.912;10.924;2023-07-13T12:29:53;27.50;50.10
3134;DHT22;1577;49.912;10.924;2023-07-13T12:32:24;27.50;50.50
3134;DHT22;1577;49.912;10.924;2023-07-13T12:35:16;27.50;49.50
3134;DHT22;1577;49.912;10.924;2023-07-13T12:37:46;27.60;51.70
3134;DHT22;1577;49.912;10.924;2023-07-13T12:40:20;27.50;50.50
3134;DHT22;1577;49.912;10.924;2023-07-13T12:42:48;27.50;50.90
3134;DHT22;1577;49.912;10.924;2023-07-13T12:45:24;27.40;50.00
3134;DHT22;1577;49.912;10.924;2023-07-13T12:47:54;27.50;51.60
3134;DHT22;1577;49.912;10.924;2023-07-13T12:50:37;27.50;50.80
3134;DHT22;1577;49.912;10.924;2023-07-13T12:53:04;27.60;51.80
3134;DHT22;1577;49.912;10.924;2023-07-13T12:56:02;27.50;50.50
3134;DHT22;1577;49.912;10.924;2023-07-13T12:58:30;27.60;52.60
3134;DHT22;1577;49.912;10.924;2023-07-13T13:00:59;27.70;52.20
3134;DHT22;1577;49.912;10.924;2023-07-13T13:03:45;27.80;52.70
3134;DHT22;1577;49.912;10.924;2023-07-13T13:08:58;27.70;52.00
3134;DHT22;1577;49.912;10.924;2023-07-13T13:11:25;27.70;51.70
3134;DHT22;1577;49.912;10.924;2023-07-13T13:13:52;27.80;51.60
3134;DHT22;1577;49.912;10.924;2023-07-13T13:16:29;28.00;51.00
3134;DHT22;1577;49.912;10.924;2023-07-13T13:18:59;28.20;52.20
3134;DHT22;1577;49.912;10.924;2023-07-13T13:21:26;28.50;51.80
3134;DHT22;1577;49.912;10.924;2023-07-13T13:23:52;28.50;51.20
3134;DHT22;1577;49.912;10.924;2023-07-13T13:26:19;28.40;51.30
3134;DHT22;1577;49.912;10.924;2023-07-13T13:28:45;28.30;52.00
3134;DHT22;1577;49.912;10.924;2023-07-13T13:31:11;28.30;51.20
3134;DHT22;1577;49.912;10.924;2023-07-13T13:33:45;28.30;52.20
3134;DHT22;1577;49.912;10.924;2023-07-13T13:36:23;28.20;51.00
3134;DHT22;1577;49.912;10.924;2023-07-13T13:38:50;28.10;51.00
3134;DHT22;1577;49.912;10.924;2023-07-13T13:41:15;28.10;51.90
3134;DHT22;1577;49.912;10.924;2023-07-13T13:43:43;28.00;52.00
3134;DHT22;1577;49.912;10.924;2023-07-13T13:46:20;27.90;52.40
3134;DHT22;1577;49.912;10.924;2023-07-13T13:48:48;27.90;50.90
3134;DHT22;1577;49.912;10.924;2023-07-13T13:53:42;28.00;51.50
3134;DHT22;1577;49.912;10.924;2023-07-13T13:56:08;28.00;51.00
3134;DHT22;1577;49.912;10.924;2023-07-13T13:58:34;28.00;51.70
3134;DHT22;1577;49.912;10.924;2023-07-13T14:00:59;28.00;52.90
3134;DHT22;1577;49.912;10.924;2023-07-13T14:03:26;28.10;51.60
3134;DHT22;1577;49.912;10.924;2023-07-13T14:05:54;28.10;53.00
3134;DHT22;1577;49.912;10.924;2023-07-13T14:08:22;27.90;53.00
3134;DHT22;1577;49.912;10.924;2023-07-13T14:10:51;27.80;52.00
3134;DHT22;1577;49.912;10.924;2023-07-13T14:13:32;27.80;53.50
3134;DHT22;1577;49.912;10.924;2023-07-13T14:15:59;27.80;51.10
3134;DHT22;1577;49.912;10.924;2023-07-13T14:18:25;27.70;53.00
3134;DHT22;1577;49.912;10.924;2023-07-13T14:20:50;27.60;52.60
3134;DHT22;1577;49.912;10.924;2023-07-13T14:23:17;27.60;52.80
3134;DHT22;1577;49.912;10.924;2023-07-13T14:25:44;27.60;52.90
3134;DHT22;1577;49.912;10.924;2023-07-13T14:28:25;27.60;52.30
3134;DHT22;1577;49.912;10.924;2023-07-13T14:30:52;27.60;52.30
3134;DHT22;1577;49.912;10.924;2023-07-13T14:33:18;27.60;52.90
3134;DHT22;1577;49.912;10.924;2023-07-13T14:35:44;27.60;52.70
3134;DHT22;1577;49.912;10.924;2023-07-13T14:38:18;27.50;53.30
3134;DHT22;1577;49.912;10.924;2023-07-13T14:40:45;27.30;52.00
3134;DHT22;1577;49.912;10.924;2023-07-13T14:43:16;27.20;54.20
3134;DHT22;1577;49.912;10.924;2023-07-13T14:45:46;27.10;52.30
3134;DHT22;1577;49.912;10.924;2023-07-13T14:48:22;27.10;52.40
3134;DHT22;1577;49.912;10.924;2023-07-13T14:50:54;27.20;52.20
3134;DHT22;1577;49.912;10.924;2023-07-13T14:53:21;27.30;53.70
3134;DHT22;1577;49.912;10.924;2023-07-13T14:55:47;27.20;54.00
3134;DHT22;1577;49.912;10.924;2023-07-13T14:58:13;27.10;53.30
3134;DHT22;1577;49.912;10.924;2023-07-13T15:00:39;27.10;54.20
3134;DHT22;1577;49.912;10.924;2023-07-13T15:03:18;27.00;53.00
3134;DHT22;1577;49.912;10.924;2023-07-13T15:05:46;26.90;53.80
3134;DHT22;1577;49.912;10.924;2023-07-13T15:08:12;27.00;54.00
3134;DHT22;1577;49.912;10.924;2023-07-13T15:10:38;27.00;53.50
3134;DHT22;1577;49.912;10.924;2023-07-13T15:13:18;27.20;53.40
3134;DHT22;1577;49.912;10.924;2023-07-13T15:15:49;27.20;53.30
3134;DHT22;1577;49.912;10.924;2023-07-13T15:18:19;27.30;52.00
3134;DHT22;1577;49.912;10.924;2023-07-13T15:20:46;27.30;52.30
3134;DHT22;1577;49.912;10.924;2023-07-13T15:23:14;27.30;52.40
3134;DHT22;1577;49.912;10.924;2023-07-13T15:25:41;27.20;52.50
3134;DHT22;1577;49.912;10.924;2023-07-13T15:28:07;27.10;52.20
3134;DHT22;1577;49.912;10.924;2023-07-13T15:30:45;27.00;52.00
3134;DHT22;1577;49.912;10.924;2023-07-13T15:33:13;27.00;52.30
3134;DHT22;1577;49.912;10.924;2023-07-13T15:35:39;27.10;51.90
3134;DHT22;1577;49.912;10.924;2023-07-13T15:38:29;27.30;52.80
3134;DHT22;1577;49.912;10.924;2023-07-13T15:40:56;27.30;52.20
3134;DHT22;1577;49.912;10.924;2023-07-13T15:43:22;27.40;53.10
3134;DHT22;1577;49.912;10.924;2023-07-13T15:45:48;27.30;52.70
3134;DHT22;1577;49.912;10.924;2023-07-13T15:48:20;27.10;52.30
3134;DHT22;1577;49.912;10.924;2023-07-13T15:50:54;26.90;51.90
3134;DHT22;1577;49.912;10.924;2023-07-13T15:53:25;26.90;52.00
3134;DHT22;1577;49.912;10.924;2023-07-13T15:55:52;26.90;52.00
3134;DHT22;1577;49.912;10.924;2023-07-13T15:58:18;27.00;52.20
3134;DHT22;1577;49.912;10.924;2023-07-13T16:00:44;27.10;52.90
3134;DHT22;1577;49.912;10.924;2023-07-13T16:03:10;27.20;54.00
3134;DHT22;1577;49.912;10.924;2023-07-13T16:05:36;27.10;53.30
3134;DHT22;1577;49.912;10.924;2023-07-13T16:08:03;27.00;53.90
3134;DHT22;1577;49.912;10.924;2023-07-13T16:10:35;26.80;53.00
3134;DHT22;1577;49.912;10.924;2023-07-13T16:13:03;26.80;53.80
3134;DHT22;1577;49.912;10.924;2023-07-13T16:15:30;26.70;53.60
3134;DHT22;1577;49.912;10.924;2023-07-13T16:17:56;26.70;53.30
3134;DHT22;1577;49.912;10.924;2023-07-13T16:20:23;26.60;53.10
3134;DHT22;1577;49.912;10.924;2023-07-13T16:22:54;26.40;53.10
3134;DHT22;1577;49.912;10.924;2023-07-13T16:25:24;26.50;53.60
3134;DHT22;1577;49.912;10.924;2023-07-13T16:27:52;26.50;53.80
3134;DHT22;1577;49.912;10.924;2023-07-13T16:30:23;26.50;53.40
3134;DHT22;1577;49.912;10.924;2023-07-13T16:32:55;26.50;52.40
3134;DHT22;1577;49.912;10.924;2023-07-13T16:35:23;26.60;53.90
3134;DHT22;1577;49.912;10.924;2023-07-13T16:37:50;26.70;52.20
3134;DHT22;1577;49.912;10.924;2023-07-13T16:40:25;26.60;53.10
3134;DHT22;1577;49.912;10.924;2023-07-13T16:42:53;26.50;52.60